MQT weather

Public forecast

Using degrees Fahrenheit for public forecast. Weather courtesy of forecast.io.

Current aviation weather report (METAR) for Sawyer International Airport

Retrieved 2020/08/11 11:47 UTC (26 minutes ago):

KSAW 111147Z 00000KT 10SM SKC 10/09 A2990

Aviation forecast (TAF) for Sawyer International Airport

Retrieved 2020/08/11 12:30 UTC (0 seconds ago):

TAF KSAW 111128Z 1112/1212 26006KT P6SM SKC FM111800 24011G20KT P6SM SKC FM112100 25012KT P6SM SKC FM120100 26006KT P6SM SKC